Dryden, Washington
Current Conditions -  °F | °C
As of 2:55 PM on Thursday 23 Oct 2014 (Local Time) from KEAT Reporting Station
Clear Clear  
Wind Chill: 58°   Ceiling: Unl
Heat Index: 58°   Visibility: 10mi
Dew Point: 40°   Wind: 6mph
Humidity: 51%   Direction: 170°S
Pressure: 29.78"   Gusts: NA
Location:  47.54°N, 120.56°W
Report Text: KEAT 232155Z AUTO 17005KT 10SM CLR 14/04 A2978 RMK AO2 SLP084 T01440044
Loading
Personal Weather Stations






























Interactive Weather Map
Tropical Storm Tracking
New forecast layout! Learn more

10-Day Weather Forecast

Advertisements
Track Severe Weather on mobile